Time;durP1;ratioP1;P1;durP2;ratioP2;P2;SDS_P1;SDS_P2;PMS_P1;PMS_P2;Temp;Humidity;BMP_temperature;BMP_pressure;BME280_temperature;BME280_humidity;BME280_pressure;Samples;Min_cycle;Max_cycle;Signal;HPM_P1;HPM_P2
2022/05/09 00:00:06;;;;;;;3.35;2.80;;;13.00;99.90;;;;;;165205;29;1357;-72
2022/05/09 00:00:15;;;;;;;3.44;2.79;;;13.00;99.90;;;;;;165819;29;1444;-72
2022/05/09 00:00:22;;;;;;;4.17;2.70;;;13.00;99.90;;;;;;165924;29;1307;-72
2022/05/09 00:00:29;;;;;;;4.28;2.78;;;13.00;99.90;;;;;;165373;29;2042;-73
2022/05/09 00:00:35;;;;;;;4.30;2.90;;;13.00;99.90;;;;;;165827;29;1316;-72
2022/05/09 00:00:40;;;;;;;4.55;3.05;;;13.00;99.90;;;;;;165473;29;1193;-72
2022/05/09 00:00:46;;;;;;;4.23;3.13;;;13.00;99.90;;;;;;166317;29;1205;-73
2022/05/09 00:00:52;;;;;;;3.70;3.10;;;13.10;99.90;;;;;;166688;29;806;-71
2022/05/09 00:00:58;;;;;;;4.23;3.17;;;13.00;99.90;;;;;;165834;29;1286;-72
2022/05/09 00:01:04;;;;;;;5.48;3.30;;;13.00;99.90;;;;;;165995;29;1545;-73
2022/05/09 00:01:10;;;;;;;5.50;3.22;;;13.00;99.90;;;;;;165744;29;1719;-72
2022/05/09 00:01:16;;;;;;;5.33;3.10;;;13.00;99.90;;;;;;165311;29;955;-72
2022/05/09 00:01:21;;;;;;;5.68;3.22;;;13.00;99.90;;;;;;165864;29;1247;-72
2022/05/09 00:01:27;;;;;;;5.45;3.08;;;13.00;99.90;;;;;;166374;29;1207;-72
2022/05/09 00:01:33;;;;;;;4.63;3.05;;;13.10;99.90;;;;;;166466;29;1283;-72
2022/05/09 00:01:39;;;;;;;4.27;2.93;;;13.00;99.90;;;;;;166021;29;1263;-72
2022/05/09 00:01:44;;;;;;;4.50;3.05;;;13.00;99.90;;;;;;165948;29;1468;-72
2022/05/09 00:01:51;;;;;;;4.60;3.03;;;13.00;99.90;;;;;;166975;29;1260;-71
2022/05/09 00:01:57;;;;;;;4.93;3.03;;;13.10;99.90;;;;;;166417;29;1419;-73
2022/05/09 00:02:03;;;;;;;4.87;3.13;;;13.00;99.90;;;;;;166142;29;1681;-72
2022/05/09 00:02:10;;;;;;;5.18;3.35;;;13.10;99.90;;;;;;165399;29;1212;-72
2022/05/09 00:02:17;;;;;;;5.40;3.46;;;13.10;99.90;;;;;;165955;29;925;-73
2022/05/09 00:02:23;;;;;;;5.28;3.55;;;13.00;99.90;;;;;;165768;29;1592;-72
2022/05/09 00:02:29;;;;;;;5.20;3.42;;;13.00;99.90;;;;;;165938;29;1440;-71
2022/05/09 00:02:34;;;;;;;5.35;3.38;;;13.00;99.90;;;;;;165946;29;1354;-72
2022/05/09 00:02:41;;;;;;;5.30;3.20;;;13.00;99.90;;;;;;166056;29;917;-72
2022/05/09 00:02:46;;;;;;;4.77;3.00;;;13.00;99.90;;;;;;165936;29;2089;-73
2022/05/09 00:02:53;;;;;;;5.15;3.08;;;13.00;99.90;;;;;;165301;29;826;-72
2022/05/09 00:02:59;;;;;;;5.07;3.15;;;13.00;99.90;;;;;;164516;30;1441;-71
2022/05/09 00:03:05;;;;;;;7.57;3.20;;;13.00;99.90;;;;;;165906;29;865;-72
2022/05/09 00:03:10;;;;;;;7.30;3.10;;;13.00;99.90;;;;;;165813;29;1372;-72
2022/05/09 00:03:16;;;;;;;7.30;3.10;;;13.00;99.90;;;;;;165935;29;952;-73
2022/05/09 00:03:22;;;;;;;6.90;3.00;;;13.00;99.90;;;;;;166009;29;925;-72
2022/05/09 00:03:27;;;;;;;6.43;3.00;;;13.00;99.90;;;;;;165856;29;1511;-71
2022/05/09 00:03:33;;;;;;;3.72;2.88;;;13.00;99.90;;;;;;164749;30;886;-72
2022/05/09 00:03:40;;;;;;;3.70;2.80;;;13.00;99.90;;;;;;164437;30;1288;-72
2022/05/09 00:03:45;;;;;;;3.90;2.78;;;13.00;99.90;;;;;;165399;29;944;-72
2022/05/09 00:03:51;;;;;;;4.65;2.90;;;13.00;99.90;;;;;;165040;29;1576;-73
2022/05/09 00:03:58;;;;;;;7.75;3.03;;;13.00;99.90;;;;;;165274;29;1343;-72
2022/05/09 00:04:04;;;;;;;7.70;3.13;;;13.00;99.90;;;;;;165787;29;1352;-72
2022/05/09 00:04:09;;;;;;;8.10;3.27;;;13.00;99.90;;;;;;165304;29;1123;-71
2022/05/09 00:04:15;;;;;;;7.90;3.25;;;13.00;99.90;;;;;;165972;29;1017;-72
2022/05/09 00:04:22;;;;;;;8.27;3.30;;;13.00;99.90;;;;;;165113;29;1331;-73
2022/05/09 00:04:27;;;;;;;5.37;3.20;;;13.00;99.90;;;;;;164795;29;1176;-72
2022/05/09 00:04:33;;;;;;;5.18;3.03;;;13.00;99.90;;;;;;165022;29;1088;-72
2022/05/09 00:04:39;;;;;;;4.80;2.90;;;13.00;99.90;;;;;;165295;29;1099;-72
2022/05/09 00:04:45;;;;;;;4.75;2.85;;;13.00;99.90;;;;;;166419;29;1179;-72
2022/05/09 00:04:51;;;;;;;3.75;2.80;;;13.00;99.90;;;;;;166428;29;1283;-72
2022/05/09 00:04:56;;;;;;;3.73;2.80;;;13.00;99.90;;;;;;165862;29;1317;-72
2022/05/09 00:05:03;;;;;;;3.87;2.80;;;13.00;99.90;;;;;;163437;29;1208;-72
2022/05/09 00:05:13;;;;;;;4.47;3.00;;;13.00;99.90;;;;;;164819;29;1331;-73
2022/05/09 00:05:25;;;;;;;4.38;2.89;;;13.00;99.90;;;;;;165396;29;1343;-71
2022/05/09 00:05:31;;;;;;;4.36;2.90;;;13.00;99.90;;;;;;164186;30;1225;-73
2022/05/09 00:05:37;;;;;;;4.10;2.90;;;13.00;99.90;;;;;;165206;29;1176;-72
2022/05/09 00:05:42;;;;;;;5.05;3.00;;;13.00;99.90;;;;;;165946;29;1220;-71
2022/05/09 00:05:48;;;;;;;5.27;3.10;;;13.00;99.90;;;;;;164639;30;1653;-72
2022/05/09 00:05:54;;;;;;;5.25;3.15;;;13.00;99.90;;;;;;164705;30;1377;-71
2022/05/09 00:06:01;;;;;;;5.07;3.10;;;13.00;99.90;;;;;;165352;29;1339;-72
2022/05/09 00:06:06;;;;;;;5.70;3.14;;;13.00;99.90;;;;;;165324;29;1004;-72
2022/05/09 00:06:13;;;;;;;4.97;3.10;;;13.00;99.90;;;;;;166000;29;1204;-72
2022/05/09 00:06:19;;;;;;;4.78;2.96;;;13.00;99.90;;;;;;166289;29;1540;-72
2022/05/09 00:06:24;;;;;;;4.30;2.75;;;13.00;99.90;;;;;;165387;29;1343;-72
2022/05/09 00:06:30;;;;;;;4.37;2.80;;;13.00;99.90;;;;;;164497;29;1238;-72
2022/05/09 00:06:36;;;;;;;3.78;2.85;;;13.00;99.90;;;;;;165317;29;1260;-71
2022/05/09 00:06:42;;;;;;;3.63;2.83;;;13.00;99.90;;;;;;165887;29;1201;-71
2022/05/09 00:06:48;;;;;;;5.68;2.88;;;13.00;99.90;;;;;;166517;29;1282;-71
2022/05/09 00:06:55;;;;;;;6.23;2.97;;;13.00;99.90;;;;;;166652;29;846;-72
2022/05/09 00:07:01;;;;;;;6.38;2.86;;;13.00;99.90;;;;;;165381;29;1396;-72
2022/05/09 00:07:07;;;;;;;6.35;2.80;;;13.00;99.90;;;;;;165338;29;890;-73
2022/05/09 00:07:13;;;;;;;6.67;2.77;;;13.00;99.90;;;;;;165743;29;1312;-72
2022/05/09 00:07:19;;;;;;;5.93;2.80;;;13.00;99.90;;;;;;164525;30;1645;-72
2022/05/09 00:07:24;;;;;;;5.60;2.83;;;13.00;99.90;;;;;;164594;30;1366;-72
2022/05/09 00:07:30;;;;;;;5.30;2.97;;;13.00;99.90;;;;;;165378;29;996;-72
2022/05/09 00:07:36;;;;;;;5.23;3.00;;;13.00;99.90;;;;;;165355;29;1122;-72
2022/05/09 00:07:43;;;;;;;4.07;2.97;;;13.00;99.90;;;;;;165023;29;1627;-72
2022/05/09 00:07:49;;;;;;;3.26;2.90;;;13.00;99.90;;;;;;164622;30;1404;-72
2022/05/09 00:07:56;;;;;;;3.27;2.90;;;13.00;99.90;;;;;;164012;29;1643;-73
2022/05/09 00:08:02;;;;;;;3.23;2.77;;;13.00;99.90;;;;;;165858;29;1368;-72
2022/05/09 00:08:08;;;;;;;4.20;2.70;;;13.00;99.90;;;;;;165949;29;1427;-71
2022/05/09 00:08:14;;;;;;;4.78;2.72;;;13.00;99.90;;;;;;164678;30;996;-72
2022/05/09 00:08:19;;;;;;;4.90;2.77;;;13.00;99.90;;;;;;166386;29;1424;-72
2022/05/09 00:08:26;;;;;;;4.95;2.80;;;13.00;99.90;;;;;;166666;29;964;-71
2022/05/09 00:08:31;;;;;;;5.40;3.07;;;13.00;99.90;;;;;;166426;29;1175;-73
2022/05/09 00:08:37;;;;;;;5.07;3.13;;;13.00;99.90;;;;;;166067;29;902;-72
2022/05/09 00:08:44;;;;;;;4.35;3.28;;;13.00;99.90;;;;;;166556;29;1041;-72
2022/05/09 00:08:50;;;;;;;4.38;3.22;;;13.00;99.90;;;;;;164643;30;1356;-72
2022/05/09 00:08:56;;;;;;;4.07;3.05;;;13.00;99.90;;;;;;164970;29;1442;-73
2022/05/09 00:09:03;;;;;;;3.75;2.95;;;13.00;99.90;;;;;;166057;29;1028;-71
2022/05/09 00:09:09;;;;;;;3.72;2.88;;;13.00;99.90;;;;;;165860;29;1653;-73
2022/05/09 00:09:16;;;;;;;3.70;2.90;;;13.00;99.90;;;;;;166019;29;872;-73
2022/05/09 00:09:22;;;;;;;3.70;2.90;;;13.00;99.90;;;;;;166041;29;1605;-72
2022/05/09 00:09:28;;;;;;;4.20;3.00;;;13.00;99.90;;;;;;167192;29;1242;-72
2022/05/09 00:09:34;;;;;;;4.13;2.92;;;13.00;99.90;;;;;;167088;29;1178;-72
2022/05/09 00:09:39;;;;;;;3.83;2.83;;;13.00;99.90;;;;;;165664;29;1110;-71
2022/05/09 00:09:46;;;;;;;4.47;2.83;;;13.00;99.90;;;;;;165933;29;1318;-72
2022/05/09 00:09:51;;;;;;;5.57;3.10;;;13.00;99.90;;;;;;165831;29;1006;-73
2022/05/09 00:09:57;;;;;;;5.60;3.10;;;13.00;99.90;;;;;;166634;29;959;-72
2022/05/09 00:10:03;;;;;;;5.78;3.17;;;13.00;99.90;;;;;;166451;29;1044;-72
2022/05/09 00:10:11;;;;;;;5.93;3.37;;;13.00;99.90;;;;;;167414;29;833;-72
2022/05/09 00:10:21;;;;;;;5.50;3.32;;;13.00;99.90;;;;;;165553;29;1059;-72
2022/05/09 00:10:27;;;;;;;4.77;3.00;;;13.00;99.90;;;;;;166627;29;1496;-73
2022/05/09 00:10:33;;;;;;;4.87;2.97;;;12.90;99.90;;;;;;165661;29;1483;-72
2022/05/09 00:10:38;;;;;;;4.70;2.80;;;12.90;99.90;;;;;;165310;29;1312;-71
2022/05/09 00:10:44;;;;;;;4.32;2.70;;;13.00;99.90;;;;;;164375;29;1240;-72
2022/05/09 00:10:50;;;;;;;4.47;2.78;;;12.90;99.90;;;;;;164808;30;980;-72
2022/05/09 00:10:55;;;;;;;4.13;2.80;;;13.00;99.90;;;;;;164694;29;1002;-72
2022/05/09 00:11:01;;;;;;;4.32;2.95;;;12.90;99.90;;;;;;165944;29;1020;-73
2022/05/09 00:11:07;;;;;;;4.38;3.13;;;13.00;99.90;;;;;;166938;29;1432;-72
2022/05/09 00:11:13;;;;;;;4.35;3.10;;;12.90;99.90;;;;;;167764;29;1276;-72
2022/05/09 00:11:19;;;;;;;4.13;3.17;;;12.90;99.90;;;;;;166683;29;886;-71
2022/05/09 00:11:24;;;;;;;3.90;2.93;;;12.90;99.90;;;;;;166490;29;1000;-71
2022/05/09 00:11:31;;;;;;;3.53;2.83;;;13.00;99.90;;;;;;165348;29;1376;-72
2022/05/09 00:11:37;;;;;;;4.02;2.72;;;12.90;99.90;;;;;;165146;29;1473;-70
2022/05/09 00:11:44;;;;;;;4.05;2.65;;;13.00;99.90;;;;;;166492;29;1602;-72
2022/05/09 00:11:50;;;;;;;4.20;2.57;;;13.00;99.90;;;;;;166559;29;1438;-72
2022/05/09 00:11:55;;;;;;;4.65;2.67;;;13.00;99.90;;;;;;165980;29;1432;-72
2022/05/09 00:12:02;;;;;;;4.90;2.80;;;13.00;99.90;;;;;;166393;29;1019;-73
2022/05/09 00:12:08;;;;;;;4.32;2.78;;;13.00;99.90;;;;;;166362;29;1222;-72
2022/05/09 00:12:14;;;;;;;4.48;2.94;;;12.90;99.90;;;;;;165287;29;1072;-71
2022/05/09 00:12:20;;;;;;;4.67;3.10;;;12.90;99.90;;;;;;165818;29;1430;-71
2022/05/09 00:12:25;;;;;;;4.47;3.05;;;13.00;99.90;;;;;;166022;29;1012;-72
2022/05/09 00:12:32;;;;;;;4.30;3.00;;;13.00;99.90;;;;;;165470;29;1405;-72
2022/05/09 00:12:37;;;;;;;4.10;3.03;;;13.00;99.90;;;;;;165632;29;1554;-71
2022/05/09 00:12:43;;;;;;;3.90;2.90;;;13.00;99.90;;;;;;165748;29;1611;-71
2022/05/09 00:12:50;;;;;;;3.73;2.93;;;13.00;99.90;;;;;;166123;29;1576;-72
2022/05/09 00:12:56;;;;;;;3.78;2.92;;;13.00;99.90;;;;;;166068;29;1250;-72
2022/05/09 00:13:01;;;;;;;3.85;2.90;;;13.00;99.90;;;;;;166018;29;1740;-72
2022/05/09 00:13:07;;;;;;;3.83;2.97;;;13.00;99.90;;;;;;166109;29;1394;-72
2022/05/09 00:13:13;;;;;;;3.95;2.95;;;12.90;99.90;;;;;;165757;29;1213;-72
2022/05/09 00:13:19;;;;;;;4.00;2.93;;;13.00;99.90;;;;;;165965;29;1224;-73
2022/05/09 00:13:24;;;;;;;4.40;3.08;;;13.00;99.90;;;;;;167026;29;1117;-72
2022/05/09 00:13:30;;;;;;;4.18;3.03;;;12.90;99.90;;;;;;166464;29;1212;-72
2022/05/09 00:13:37;;;;;;;4.30;3.13;;;12.90;99.90;;;;;;167086;29;988;-74
2022/05/09 00:13:43;;;;;;;4.47;3.20;;;13.00;99.90;;;;;;167310;29;1145;-71
2022/05/09 00:13:49;;;;;;;4.60;3.20;;;12.90;99.90;;;;;;167804;29;976;-72
2022/05/09 00:13:55;;;;;;;4.53;3.17;;;12.90;99.90;;;;;;165960;29;1272;-72
2022/05/09 00:14:01;;;;;;;5.05;3.30;;;12.90;99.90;;;;;;165980;29;949;-72
2022/05/09 00:14:07;;;;;;;5.32;3.30;;;13.00;99.90;;;;;;166005;29;1296;-72
2022/05/09 00:14:13;;;;;;;5.72;3.47;;;12.90;99.90;;;;;;163964;30;1451;-72
2022/05/09 00:14:19;;;;;;;5.50;3.47;;;13.00;99.90;;;;;;165306;29;1346;-72
2022/05/09 00:14:25;;;;;;;5.63;3.47;;;12.90;99.90;;;;;;164709;29;1301;-71
2022/05/09 00:14:30;;;;;;;5.28;3.40;;;12.90;99.90;;;;;;165769;29;1053;-71
2022/05/09 00:14:37;;;;;;;4.80;3.20;;;13.00;99.90;;;;;;166063;29;965;-72
2022/05/09 00:14:42;;;;;;;4.30;2.90;;;12.90;99.90;;;;;;165716;29;1008;-72
2022/05/09 00:14:48;;;;;;;4.63;3.00;;;12.90;99.90;;;;;;166366;29;2001;-71
2022/05/09 00:14:54;;;;;;;4.20;3.00;;;12.90;99.90;;;;;;166254;29;1238;-72
2022/05/09 00:15:00;;;;;;;4.15;2.95;;;12.90;99.90;;;;;;165761;29;2069;-72
2022/05/09 00:15:08;;;;;;;4.23;3.00;;;13.00;99.90;;;;;;166515;29;1417;-72
2022/05/09 00:15:16;;;;;;;4.28;3.13;;;12.90;99.90;;;;;;167088;29;1483;-71
2022/05/09 00:15:22;;;;;;;4.27;3.15;;;12.90;99.90;;;;;;166218;29;1087;-72
2022/05/09 00:15:28;;;;;;;4.47;3.25;;;12.90;99.90;;;;;;166561;29;1238;-70
2022/05/09 00:15:34;;;;;;;4.40;3.22;;;12.90;99.90;;;;;;166400;29;1241;-71
2022/05/09 00:15:39;;;;;;;5.13;3.40;;;12.90;99.90;;;;;;166530;29;1262;-72
2022/05/09 00:15:45;;;;;;;5.37;3.50;;;12.90;99.90;;;;;;166632;29;883;-72
2022/05/09 00:15:51;;;;;;;5.22;3.45;;;12.90;99.90;;;;;;166331;29;1494;-72
2022/05/09 00:15:56;;;;;;;6.93;3.53;;;12.90;99.90;;;;;;166657;29;1050;-72
2022/05/09 00:16:04;;;;;;;7.90;3.60;;;12.90;99.90;;;;;;165851;29;1209;-72
2022/05/09 00:16:10;;;;;;;7.53;3.53;;;12.90;99.90;;;;;;166685;29;983;-71
2022/05/09 00:16:16;;;;;;;7.80;3.42;;;12.90;99.90;;;;;;165752;29;1218;-72
2022/05/09 00:16:21;;;;;;;7.90;3.30;;;12.90;99.90;;;;;;165405;29;970;-72
2022/05/09 00:16:33;;;;;;;6.00;3.17;;;12.90;99.90;;;;;;164781;30;882;-71
2022/05/09 00:16:40;;;;;;;5.10;2.90;;;12.90;99.90;;;;;;164736;29;1498;-73
2022/05/09 00:16:46;;;;;;;4.58;2.88;;;12.90;99.90;;;;;;165851;29;1304;-71
2022/05/09 00:16:52;;;;;;;4.28;3.03;;;12.90;99.90;;;;;;166050;29;920;-71
2022/05/09 00:16:58;;;;;;;4.30;3.10;;;12.90;99.90;;;;;;165819;29;1361;-72
2022/05/09 00:17:05;;;;;;;4.35;3.15;;;12.90;99.90;;;;;;166614;29;821;-72
2022/05/09 00:17:11;;;;;;;4.14;3.30;;;12.90;99.90;;;;;;165317;29;1360;-71
2022/05/09 00:17:17;;;;;;;4.47;3.33;;;13.00;99.90;;;;;;165382;29;945;-72
2022/05/09 00:17:22;;;;;;;4.20;3.15;;;12.90;99.90;;;;;;165994;29;1418;-72
2022/05/09 00:17:28;;;;;;;4.20;3.10;;;12.90;99.90;;;;;;165830;29;1306;-72
2022/05/09 00:17:34;;;;;;;4.40;3.20;;;12.90;99.90;;;;;;165725;29;1247;-72
2022/05/09 00:17:40;;;;;;;4.85;3.25;;;12.90;99.90;;;;;;165277;29;1522;-72
2022/05/09 00:17:46;;;;;;;5.47;3.20;;;13.00;99.90;;;;;;165936;29;943;-72
2022/05/09 00:17:52;;;;;;;6.13;3.40;;;13.00;99.90;;;;;;165222;29;1326;-72
2022/05/09 00:17:58;;;;;;;6.13;3.45;;;12.90;99.90;;;;;;166094;29;806;-72
2022/05/09 00:18:04;;;;;;;6.15;3.38;;;12.90;99.90;;;;;;165839;29;1749;-72
2022/05/09 00:18:09;;;;;;;5.47;3.15;;;12.90;99.90;;;;;;165364;29;1264;-72
2022/05/09 00:18:17;;;;;;;4.50;2.97;;;13.00;99.90;;;;;;165079;29;2985;-72
2022/05/09 00:18:22;;;;;;;3.70;2.84;;;12.90;99.90;;;;;;164238;30;1591;-72
2022/05/09 00:18:28;;;;;;;5.28;2.78;;;12.90;99.90;;;;;;165224;29;1117;-72
2022/05/09 00:18:34;;;;;;;4.88;2.67;;;12.90;99.90;;;;;;165323;29;1190;-72
2022/05/09 00:18:40;;;;;;;5.07;2.77;;;12.90;99.90;;;;;;165275;29;1384;-72
2022/05/09 00:18:46;;;;;;;5.15;2.78;;;12.90;99.90;;;;;;164738;30;1393;-73
2022/05/09 00:18:52;;;;;;;5.25;2.80;;;12.90;99.90;;;;;;165257;29;1434;-71
2022/05/09 00:18:58;;;;;;;4.10;2.88;;;12.90;99.90;;;;;;166463;29;984;-72
2022/05/09 00:19:06;;;;;;;5.00;3.20;;;12.90;99.90;;;;;;166576;29;821;-72
2022/05/09 00:19:17;;;;;;;5.63;3.23;;;12.90;99.90;;;;;;166278;29;1527;-72
2022/05/09 00:19:23;;;;;;;5.99;3.34;;;12.90;99.90;;;;;;166323;29;1294;-72
2022/05/09 00:19:28;;;;;;;5.83;3.30;;;12.90;99.90;;;;;;166337;29;1589;-71
2022/05/09 00:19:35;;;;;;;5.30;3.13;;;12.90;99.90;;;;;;163832;30;1565;-72
2022/05/09 00:19:41;;;;;;;4.50;3.10;;;12.90;99.90;;;;;;165281;29;1423;-72
2022/05/09 00:19:46;;;;;;;4.77;3.17;;;12.90;99.90;;;;;;166059;29;1681;-72
2022/05/09 00:19:52;;;;;;;5.07;2.95;;;12.90;99.90;;;;;;166570;29;1215;-72
2022/05/09 00:19:58;;;;;;;4.88;2.85;;;12.90;99.90;;;;;;166641;29;909;-72
2022/05/09 00:20:05;;;;;;;5.37;2.83;;;12.90;99.90;;;;;;165730;29;1426;-72
2022/05/09 00:20:14;;;;;;;6.73;2.90;;;12.90;99.90;;;;;;165619;29;1847;-72
2022/05/09 00:20:20;;;;;;;6.44;2.99;;;12.90;99.90;;;;;;165376;29;1045;-71
2022/05/09 00:20:26;;;;;;;5.88;3.03;;;12.90;99.90;;;;;;165919;29;1680;-72
2022/05/09 00:20:32;;;;;;;5.77;3.07;;;12.90;99.90;;;;;;165900;29;1325;-71
2022/05/09 00:20:37;;;;;;;4.07;2.97;;;12.90;99.90;;;;;;165473;29;932;-71
2022/05/09 00:20:43;;;;;;;3.67;2.78;;;12.90;99.90;;;;;;165636;29;1334;-72
2022/05/09 00:20:49;;;;;;;3.40;2.67;;;12.90;99.90;;;;;;165235;29;1326;-72
2022/05/09 00:20:54;;;;;;;3.37;2.70;;;12.90;99.90;;;;;;166030;29;1335;-72
2022/05/09 00:21:00;;;;;;;3.22;2.70;;;12.90;99.90;;;;;;166003;29;1298;-72
2022/05/09 00:21:06;;;;;;;3.47;2.80;;;12.90;99.90;;;;;;166504;29;1305;-73
2022/05/09 00:21:12;;;;;;;3.85;3.00;;;12.90;99.90;;;;;;166997;29;1234;-72
2022/05/09 00:21:18;;;;;;;4.70;3.08;;;12.90;99.90;;;;;;166287;29;1801;-71
2022/05/09 00:21:23;;;;;;;5.13;3.20;;;12.90;99.90;;;;;;166360;29;1580;-72
2022/05/09 00:21:36;;;;;;;5.50;3.40;;;12.90;99.90;;;;;;165685;29;1532;-72
2022/05/09 00:21:42;;;;;;;5.71;3.46;;;12.90;99.90;;;;;;166216;29;1593;-72
2022/05/09 00:21:51;;;;;;;6.23;3.57;;;12.90;99.90;;;;;;167073;29;1204;-72
2022/05/09 00:21:57;;;;;;;5.99;3.37;;;12.90;99.90;;;;;;166811;29;2031;-73
2022/05/09 00:22:03;;;;;;;5.65;3.20;;;12.90;99.90;;;;;;166326;29;1114;-72
2022/05/09 00:22:08;;;;;;;5.33;3.13;;;12.90;99.90;;;;;;166624;29;1476;-72
2022/05/09 00:22:14;;;;;;;4.70;3.03;;;12.90;99.90;;;;;;166503;29;1057;-72
2022/05/09 00:22:20;;;;;;;4.90;3.15;;;12.90;99.90;;;;;;166672;29;848;-72
2022/05/09 00:22:26;;;;;;;4.97;3.27;;;12.90;99.90;;;;;;165848;29;1481;-73
2022/05/09 00:22:44;;;;;;;5.10;3.30;;;12.90;99.90;;;;;;164943;29;1444;-72
2022/05/09 00:22:55;;;;;;;4.76;3.13;;;12.90;99.90;;;;;;164750;30;1419;-72
2022/05/09 00:23:01;;;;;;;4.28;2.86;;;12.90;99.90;;;;;;165796;29;1736;-72
2022/05/09 00:23:07;;;;;;;4.93;3.00;;;12.90;99.90;;;;;;165816;29;1048;-71
2022/05/09 00:23:13;;;;;;;5.13;3.05;;;12.90;99.90;;;;;;166021;29;889;-72
2022/05/09 00:23:19;;;;;;;5.33;3.00;;;12.90;99.90;;;;;;166001;29;1068;-71
2022/05/09 00:23:24;;;;;;;5.10;2.95;;;12.90;99.90;;;;;;166485;29;1257;-71
2022/05/09 00:23:30;;;;;;;5.00;3.00;;;12.90;99.90;;;;;;165302;29;845;-71
2022/05/09 00:23:36;;;;;;;4.68;2.90;;;12.90;99.90;;;;;;166519;29;1382;-71
2022/05/09 00:23:42;;;;;;;4.23;2.80;;;12.90;99.90;;;;;;165180;29;1413;-73
2022/05/09 00:23:48;;;;;;;4.03;2.90;;;12.90;99.90;;;;;;165179;29;1403;-72
2022/05/09 00:23:54;;;;;;;4.13;2.90;;;12.90;99.90;;;;;;166594;29;1460;-71
2022/05/09 00:24:00;;;;;;;4.70;2.83;;;12.90;99.90;;;;;;166441;29;1167;-71
2022/05/09 00:24:09;;;;;;;4.57;2.80;;;12.90;99.90;;;;;;165991;29;856;-71
2022/05/09 00:24:17;;;;;;;5.05;3.00;;;12.90;99.90;;;;;;165137;29;1379;-72
2022/05/09 00:24:23;;;;;;;4.90;3.03;;;12.90;99.90;;;;;;165357;29;1317;-72
2022/05/09 00:24:29;;;;;;;4.70;3.30;;;12.90;99.90;;;;;;165063;29;1488;-72
2022/05/09 00:24:35;;;;;;;4.70;3.30;;;12.80;99.90;;;;;;166669;29;854;-71
2022/05/09 00:24:41;;;;;;;4.47;3.17;;;12.90;99.90;;;;;;165188;29;1355;-72
2022/05/09 00:24:46;;;;;;;4.20;3.08;;;12.90;99.90;;;;;;164808;29;1122;-72
2022/05/09 00:24:52;;;;;;;4.13;3.05;;;12.90;99.90;;;;;;164721;29;1261;-74
2022/05/09 00:25:01;;;;;;;4.10;2.97;;;12.90;99.90;;;;;;165150;29;1274;-71
2022/05/09 00:25:07;;;;;;;4.60;3.00;;;12.90;99.90;;;;;;165270;29;869;-72
2022/05/09 00:25:13;;;;;;;4.35;2.90;;;12.90;99.90;;;;;;165988;29;936;-73
2022/05/09 00:25:24;;;;;;;4.20;3.00;;;12.90;99.90;;;;;;166570;29;940;-72
2022/05/09 00:25:30;;;;;;;4.19;2.94;;;12.90;99.90;;;;;;165994;29;1224;-71
2022/05/09 00:25:36;;;;;;;3.80;2.90;;;12.90;99.90;;;;;;164645;29;958;-72
2022/05/09 00:25:42;;;;;;;4.15;3.03;;;12.90;99.90;;;;;;165358;29;1575;-72
2022/05/09 00:25:47;;;;;;;4.72;3.13;;;12.90;99.90;;;;;;164620;30;1258;-73
2022/05/09 00:25:53;;;;;;;5.00;3.20;;;12.80;99.90;;;;;;164819;29;802;-71
2022/05/09 00:26:00;;;;;;;5.28;3.22;;;12.90;99.90;;;;;;165785;29;1432;-72
2022/05/09 00:26:07;;;;;;;5.70;3.33;;;12.90;99.90;;;;;;165189;29;1258;-72
2022/05/09 00:26:13;;;;;;;5.32;3.26;;;12.90;99.90;;;;;;165109;29;1455;-72
2022/05/09 00:26:19;;;;;;;5.33;3.13;;;12.90;99.90;;;;;;165293;29;1450;-72
2022/05/09 00:26:30;;;;;;;4.70;2.95;;;12.90;99.90;;;;;;165313;29;941;-72
2022/05/09 00:26:35;;;;;;;4.06;2.80;;;12.90;99.90;;;;;;166519;29;1549;-71
2022/05/09 00:26:41;;;;;;;3.80;2.80;;;12.90;99.90;;;;;;166058;29;1000;-71
2022/05/09 00:26:49;;;;;;;3.55;2.83;;;12.90;99.90;;;;;;165820;29;2000;-72
2022/05/09 00:26:57;;;;;;;3.57;2.81;;;12.90;99.90;;;;;;165724;29;1548;-71
2022/05/09 00:27:03;;;;;;;4.20;2.97;;;12.80;99.90;;;;;;164822;30;873;-72
2022/05/09 00:27:09;;;;;;;4.22;2.80;;;12.80;99.90;;;;;;165788;29;1274;-72
2022/05/09 00:27:14;;;;;;;3.95;2.60;;;12.90;99.90;;;;;;165996;29;892;-71
2022/05/09 00:27:20;;;;;;;4.23;2.57;;;12.90;99.90;;;;;;165902;29;1080;-72
2022/05/09 00:27:26;;;;;;;4.43;2.50;;;12.90;99.90;;;;;;166104;29;881;-72
2022/05/09 00:27:32;;;;;;;4.53;2.53;;;12.80;99.90;;;;;;166385;29;1332;-72
2022/05/09 00:27:38;;;;;;;4.53;2.53;;;12.80;99.90;;;;;;166410;29;1372;-71
2022/05/09 00:27:43;;;;;;;5.00;2.72;;;12.80;99.90;;;;;;166591;29;1197;-72
2022/05/09 00:27:49;;;;;;;8.13;3.03;;;12.80;99.90;;;;;;166960;29;1199;-70
2022/05/09 00:27:55;;;;;;;8.07;3.30;;;12.80;99.90;;;;;;165959;29;1067;-72
2022/05/09 00:28:01;;;;;;;7.82;3.35;;;12.80;99.90;;;;;;164447;29;1588;-72
2022/05/09 00:28:07;;;;;;;8.00;3.40;;;12.80;99.90;;;;;;164774;30;904;-72
2022/05/09 00:28:13;;;;;;;7.80;3.35;;;12.80;99.90;;;;;;164907;29;1121;-72
2022/05/09 00:28:18;;;;;;;5.03;3.23;;;12.80;99.90;;;;;;165866;29;1227;-72
2022/05/09 00:28:25;;;;;;;4.65;3.13;;;12.90;99.90;;;;;;166492;29;943;-72
2022/05/09 00:28:31;;;;;;;4.37;2.97;;;12.80;99.90;;;;;;167673;29;1315;-71
2022/05/09 00:28:38;;;;;;;4.10;2.90;;;12.90;99.90;;;;;;167884;29;1135;-72
2022/05/09 00:28:43;;;;;;;4.53;3.15;;;12.80;99.90;;;;;;167007;29;1454;-72
2022/05/09 00:28:49;;;;;;;4.55;3.17;;;12.90;99.90;;;;;;166645;29;1429;-71
2022/05/09 00:28:55;;;;;;;4.20;2.97;;;12.80;99.90;;;;;;166571;29;1387;-71
2022/05/09 00:29:03;;;;;;;3.97;3.10;;;12.80;99.90;;;;;;166021;29;873;-71
2022/05/09 00:29:11;;;;;;;3.71;2.99;;;12.80;99.90;;;;;;165296;29;1099;-72
2022/05/09 00:29:20;;;;;;;3.48;2.85;;;12.90;99.90;;;;;;164094;29;970;-73
2022/05/09 00:29:26;;;;;;;4.21;2.99;;;12.90;99.90;;;;;;164681;30;1532;-72
2022/05/09 00:29:32;;;;;;;4.75;3.10;;;12.80;99.90;;;;;;164489;29;1759;-73
2022/05/09 00:29:37;;;;;;;4.83;3.10;;;12.80;99.90;;;;;;165253;29;1692;-71
2022/05/09 00:29:43;;;;;;;4.70;3.03;;;12.80;99.90;;;;;;164722;29;1291;-73
2022/05/09 00:29:50;;;;;;;4.78;3.00;;;12.90;99.90;;;;;;165827;29;1120;-71
2022/05/09 00:29:57;;;;;;;3.93;2.80;;;12.90;99.90;;;;;;166573;29;841;-72
2022/05/09 00:30:04;;;;;;;3.96;2.62;;;12.80;99.90;;;;;;166400;29;1354;-72
2022/05/09 00:30:11;;;;;;;4.30;2.60;;;12.90;99.90;;;;;;165255;29;1312;-72
2022/05/09 00:30:18;;;;;;;4.22;2.60;;;12.80;99.90;;;;;;164626;30;1348;-71
2022/05/09 00:30:23;;;;;;;5.38;2.70;;;12.80;99.90;;;;;;166047;29;1051;-71
2022/05/09 00:30:29;;;;;;;5.55;2.72;;;12.80;99.90;;;;;;165908;29;1371;-72
2022/05/09 00:30:35;;;;;;;5.32;2.90;;;12.80;99.90;;;;;;165337;29;775;-72
2022/05/09 00:30:41;;;;;;;5.47;2.90;;;12.80;99.90;;;;;;165697;29;1207;-72
2022/05/09 00:30:47;;;;;;;5.38;2.90;;;12.80;99.90;;;;;;166023;29;857;-72
2022/05/09 00:30:54;;;;;;;4.07;2.83;;;12.80;99.90;;;;;;166395;29;1338;-73
2022/05/09 00:31:00;;;;;;;4.78;2.98;;;12.90;99.90;;;;;;165903;29;1477;-72
2022/05/09 00:31:06;;;;;;;4.93;3.00;;;12.80;99.90;;;;;;164992;29;1620;-74
2022/05/09 00:31:11;;;;;;;4.60;2.90;;;12.90;99.90;;;;;;165333;29;893;-72
2022/05/09 00:31:17;;;;;;;4.53;2.90;;;12.90;99.90;;;;;;164742;29;1801;-72
2022/05/09 00:31:23;;;;;;;4.72;3.08;;;12.90;99.90;;;;;;165335;29;1517;-71
2022/05/09 00:31:29;;;;;;;4.20;3.10;;;12.80;99.90;;;;;;165400;29;988;-71
2022/05/09 00:31:36;;;;;;;3.96;3.00;;;12.90;99.90;;;;;;165851;29;1243;-73
2022/05/09 00:31:44;;;;;;;4.10;3.10;;;12.80;99.90;;;;;;165968;29;2049;-72
2022/05/09 00:31:53;;;;;;;4.30;3.10;;;12.90;99.90;;;;;;165855;29;1761;-72
2022/05/09 00:31:59;;;;;;;4.37;2.87;;;12.80;99.90;;;;;;165993;29;1159;-71
2022/05/09 00:32:06;;;;;;;4.50;2.90;;;12.80;99.90;;;;;;166490;29;1557;-72
2022/05/09 00:32:11;;;;;;;4.47;2.80;;;12.80;99.90;;;;;;167779;29;1308;-72
2022/05/09 00:32:17;;;;;;;4.80;2.85;;;12.80;99.90;;;;;;167885;29;896;-71
2022/05/09 00:32:24;;;;;;;4.70;2.90;;;12.80;99.90;;;;;;167074;29;1299;-73
2022/05/09 00:32:29;;;;;;;5.07;2.97;;;12.80;99.90;;;;;;166707;29;1065;-71
2022/05/09 00:32:36;;;;;;;5.20;3.08;;;12.80;99.90;;;;;;166000;29;842;-71
2022/05/09 00:32:42;;;;;;;5.83;3.37;;;12.80;99.90;;;;;;166557;29;1317;-72
2022/05/09 00:32:48;;;;;;;5.90;3.50;;;12.90;99.90;;;;;;166520;29;1339;-71
2022/05/09 00:32:53;;;;;;;5.55;3.40;;;12.80;99.90;;;;;;164529;29;1462;-72
2022/05/09 00:32:59;;;;;;;5.70;3.40;;;12.80;99.90;;;;;;165214;29;1585;-72
2022/05/09 00:33:05;;;;;;;5.40;3.30;;;12.80;99.90;;;;;;165600;29;1571;-72
2022/05/09 00:33:11;;;;;;;5.10;3.07;;;12.80;99.90;;;;;;165948;29;1104;-72
2022/05/09 00:33:16;;;;;;;4.55;2.90;;;12.80;99.90;;;;;;166452;29;1424;-72
2022/05/09 00:33:24;;;;;;;4.43;2.90;;;12.80;99.90;;;;;;165943;29;957;-72
2022/05/09 00:33:30;;;;;;;3.93;2.88;;;12.80;99.90;;;;;;165388;29;1893;-72
2022/05/09 00:33:36;;;;;;;3.55;2.78;;;12.80;99.90;;;;;;165328;29;1623;-71
2022/05/09 00:33:42;;;;;;;4.07;2.93;;;12.80;99.90;;;;;;165976;29;810;-72
2022/05/09 00:33:48;;;;;;;4.47;2.97;;;12.80;99.90;;;;;;166007;29;1382;-72